Aviation Digital Data Service (ADDS)

Output produced by METARs form (1954 UTC 17 November 2019)
found at http://www.aviationweather.gov/metar/data/
 
METAR text: UHSS 171930Z 25001MPS 9999 FEW033 M07/M08 Q1021 R01/420350 NOSIG RMK MT OBSC QFE764/1019
Conditions at: UHSS (JUZNO-SAHALINSK , RU) observed 1930 UTC 17 November 2019
Temperature: -7.0°C (19°F)
Dewpoint: -8.0°C (18°F) [RH = 93%]
Pressure (altimeter): 30.15 inches Hg (1021.0 mb)
Winds: from the WSW (250 degrees) at 2 MPH (2 knots; 1.0 m/s)
Visibility: 6 or more miles (10+ km)
Ceiling: at least 12,000 feet AGL
Clouds: few clouds at 3300 feet AGL
Weather: no significant weather observed at this time

METAR text: UHSS 171900Z 00000MPS 9999 FEW033 M07/M09 Q1020 R01/420350 NOSIG RMK MT OBSC QFE764/1019
Conditions at: UHSS (JUZNO-SAHALINSK , RU) observed 1900 UTC 17 November 2019
Temperature: -7.0°C (19°F)
Dewpoint: -9.0°C (16°F) [RH = 86%]
Pressure (altimeter): 30.12 inches Hg (1020.0 mb)
Winds: calm
Visibility: 6 or more miles (10+ km)
Ceiling: at least 12,000 feet AGL
Clouds: few clouds at 3300 feet AGL
Weather: no significant weather observed at this time

METAR text: UHSS 171800Z 30003MPS 9999 SCT033 M05/M07 Q1020 R01/420350 NOSIG RMK MT OBSC QFE764/1018
Conditions at: UHSS (JUZNO-SAHALINSK , RU) observed 1800 UTC 17 November 2019
Temperature: -5.0°C (23°F)
Dewpoint: -7.0°C (19°F) [RH = 86%]
Pressure (altimeter): 30.12 inches Hg (1020.0 mb)
Winds: from the WNW (300 degrees) at 7 MPH (6 knots; 3.1 m/s)
Visibility: 6 or more miles (10+ km)
Ceiling: at least 12,000 feet AGL
Clouds: scattered clouds at 3300 feet AGL
Weather: no significant weather observed at this time

METAR text: UHSS 171700Z 35004MPS 9999 SCT032 M04/M07 Q1020 R01/420350 NOSIG RMK MT OBSC QFE764/1018
Conditions at: UHSS (JUZNO-SAHALINSK , RU) observed 1700 UTC 17 November 2019
Temperature: -4.0°C (25°F)
Dewpoint: -7.0°C (19°F) [RH = 80%]
Pressure (altimeter): 30.12 inches Hg (1020.0 mb)
Winds: from the N (350 degrees) at 9 MPH (8 knots; 4.1 m/s)
Visibility: 6 or more miles (10+ km)
Ceiling: at least 12,000 feet AGL
Clouds: scattered clouds at 3200 feet AGL
Weather: no significant weather observed at this time

METAR text: UHSS 171600Z 36004MPS 9999 BKN032 M02/M06 Q1020 R01/420350 NOSIG RMK MT OBSC QFE764/1019
Conditions at: UHSS (JUZNO-SAHALINSK , RU) observed 1600 UTC 17 November 2019
Temperature: -2.0°C (28°F)
Dewpoint: -6.0°C (21°F) [RH = 74%]
Pressure (altimeter): 30.12 inches Hg (1020.0 mb)
Winds: from the N (360 degrees) at 9 MPH (8 knots; 4.1 m/s)
Visibility: 6 or more miles (10+ km)
Ceiling: 3200 feet AGL
Clouds: broken clouds at 3200 feet AGL
Weather: no significant weather observed at this time

METAR text: UHSS 171500Z 32005MPS 9999 BKN032 M02/M06 Q1020 R01/420350 NOSIG RMK MT OBSC QFE764/1018
Conditions at: UHSS (JUZNO-SAHALINSK , RU) observed 1500 UTC 17 November 2019
Temperature: -2.0°C (28°F)
Dewpoint: -6.0°C (21°F) [RH = 74%]
Pressure (altimeter): 30.12 inches Hg (1020.0 mb)
Winds: from the NW (320 degrees) at 12 MPH (10 knots; 5.1 m/s)
Visibility: 6 or more miles (10+ km)
Ceiling: 3200 feet AGL
Clouds: broken clouds at 3200 feet AGL
Weather: no significant weather observed at this time

METAR text: UHSS 171400Z 33006MPS 9999 BKN032 M03/M06 Q1019 R01/420350 NOSIG RMK MT OBSC QFE763/1018
Conditions at: UHSS (JUZNO-SAHALINSK , RU) observed 1400 UTC 17 November 2019
Temperature: -3.0°C (27°F)
Dewpoint: -6.0°C (21°F) [RH = 80%]
Pressure (altimeter): 30.09 inches Hg (1019.0 mb)
Winds: from the NNW (330 degrees) at 14 MPH (12 knots; 6.2 m/s)
Visibility: 6 or more miles (10+ km)
Ceiling: 3200 feet AGL
Clouds: broken clouds at 3200 feet AGL
Weather: no significant weather observed at this time

METAR text: UHSS 171300Z 34002MPS 9999 SCT034 M04/M07 Q1018 R01/420350 NOSIG RMK QFE763/1017
Conditions at: UHSS (JUZNO-SAHALINSK , RU) observed 1300 UTC 17 November 2019
Temperature: -4.0°C (25°F)
Dewpoint: -7.0°C (19°F) [RH = 80%]
Pressure (altimeter): 30.06 inches Hg (1018.0 mb)
Winds: from the NNW (340 degrees) at 5 MPH (4 knots; 2.1 m/s)
Visibility: 6 or more miles (10+ km)
Ceiling: at least 12,000 feet AGL
Clouds: scattered clouds at 3400 feet AGL
Weather: no significant weather observed at this time

METAR text: UHSS 171200Z 34004MPS 9999 BKN035 M02/M06 Q1018 R01/420350 NOSIG RMK QFE762/1016
Conditions at: UHSS (JUZNO-SAHALINSK , RU) observed 1200 UTC 17 November 2019
Temperature: -2.0°C (28°F)
Dewpoint: -6.0°C (21°F) [RH = 74%]
Pressure (altimeter): 30.06 inches Hg (1018.0 mb)
Winds: from the NNW (340 degrees) at 9 MPH (8 knots; 4.1 m/s)
Visibility: 6 or more miles (10+ km)
Ceiling: 3500 feet AGL
Clouds: broken clouds at 3500 feet AGL
Weather: no significant weather observed at this time

METAR text: UHSS 171130Z 34005MPS 9999 SCT033 M02/M06 Q1018 R01/420350 NOSIG RMK MT OBSC QFE762/1016
Conditions at: UHSS (JUZNO-SAHALINSK , RU) observed 1130 UTC 17 November 2019
Temperature: -2.0°C (28°F)
Dewpoint: -6.0°C (21°F) [RH = 74%]
Pressure (altimeter): 30.06 inches Hg (1018.0 mb)
Winds: from the NNW (340 degrees) at 12 MPH (10 knots; 5.1 m/s)
Visibility: 6 or more miles (10+ km)
Ceiling: at least 12,000 feet AGL
Clouds: scattered clouds at 3300 feet AGL
Weather: no significant weather observed at this time

METAR text: UHSS 171100Z 30001MPS 9999 SCT033 M03/M07 Q1017 R01/420350 NOSIG RMK MT OBSC QFE762/1016
Conditions at: UHSS (JUZNO-SAHALINSK , RU) observed 1100 UTC 17 November 2019
Temperature: -3.0°C (27°F)
Dewpoint: -7.0°C (19°F) [RH = 74%]
Pressure (altimeter): 30.03 inches Hg (1017.0 mb)
Winds: from the WNW (300 degrees) at 2 MPH (2 knots; 1.0 m/s)
Visibility: 6 or more miles (10+ km)
Ceiling: at least 12,000 feet AGL
Clouds: scattered clouds at 3300 feet AGL
Weather: no significant weather observed at this time

METAR text: UHSS 171030Z 36003MPS 9999 SCT033 M02/M07 Q1016 R01/420350 NOSIG RMK MT OBSC QFE761/1015
Conditions at: UHSS (JUZNO-SAHALINSK , RU) observed 1030 UTC 17 November 2019
Temperature: -2.0°C (28°F)
Dewpoint: -7.0°C (19°F) [RH = 69%]
Pressure (altimeter): 30.00 inches Hg (1016.0 mb)
Winds: from the N (360 degrees) at 7 MPH (6 knots; 3.1 m/s)
Visibility: 6 or more miles (10+ km)
Ceiling: at least 12,000 feet AGL
Clouds: scattered clouds at 3300 feet AGL
Weather: no significant weather observed at this time

METAR text: UHSS 171000Z 02002MPS 9999 FEW033 M03/M07 Q1016 R01/420350 NOSIG RMK MT OBSC QFE761/1015
Conditions at: UHSS (JUZNO-SAHALINSK , RU) observed 1000 UTC 17 November 2019
Temperature: -3.0°C (27°F)
Dewpoint: -7.0°C (19°F) [RH = 74%]
Pressure (altimeter): 30.00 inches Hg (1016.0 mb)
Winds: from the NNE (20 degrees) at 5 MPH (4 knots; 2.1 m/s)
Visibility: 6 or more miles (10+ km)
Ceiling: at least 12,000 feet AGL
Clouds: few clouds at 3300 feet AGL
Weather: no significant weather observed at this time

METAR text: UHSS 170930Z 33005MPS 9999 FEW033 M01/M06 Q1015 R01/420350 NOSIG RMK MT OBSC QFE760/1014
Conditions at: UHSS (JUZNO-SAHALINSK , RU) observed 0930 UTC 17 November 2019
Temperature: -1.0°C (30°F)
Dewpoint: -6.0°C (21°F) [RH = 69%]
Pressure (altimeter): 29.97 inches Hg (1015.0 mb)
Winds: from the NNW (330 degrees) at 12 MPH (10 knots; 5.1 m/s)
Visibility: 6 or more miles (10+ km)
Ceiling: at least 12,000 feet AGL
Clouds: few clouds at 3300 feet AGL
Weather: no significant weather observed at this time

METAR text: UHSS 170900Z 32006MPS 9999 SCT033 M01/M06 Q1015 R01/420350 NOSIG RMK MT OBSC QFE760/1013
Conditions at: UHSS (JUZNO-SAHALINSK , RU) observed 0900 UTC 17 November 2019
Temperature: -1.0°C (30°F)
Dewpoint: -6.0°C (21°F) [RH = 69%]
Pressure (altimeter): 29.97 inches Hg (1015.0 mb)
Winds: from the NW (320 degrees) at 14 MPH (12 knots; 6.2 m/s)
Visibility: 6 or more miles (10+ km)
Ceiling: at least 12,000 feet AGL
Clouds: scattered clouds at 3300 feet AGL
Weather: no significant weather observed at this time

METAR text: UHSS 170830Z 32006G11MPS 9999 SCT033 M01/M06 Q1014 R01/420350 NOSIG RMK MT OBSC QFE759/1013
Conditions at: UHSS (JUZNO-SAHALINSK , RU) observed 0830 UTC 17 November 2019
Temperature: -1.0°C (30°F)
Dewpoint: -6.0°C (21°F) [RH = 69%]
Pressure (altimeter): 29.94 inches Hg (1014.0 mb)
Winds: from the NW (320 degrees) at 14 MPH (12 knots; 6.2 m/s)
gusting to 24 MPH (21 knots; 10.8 m/s)
Visibility: 6 or more miles (10+ km)
Ceiling: at least 12,000 feet AGL
Clouds: scattered clouds at 3300 feet AGL
Weather: no significant weather observed at this time

METAR text: UHSS 170800Z 33007G12MPS 9999 SCT034 M01/M06 Q1014 R01/420350 NOSIG RMK QFE759/1012
Conditions at: UHSS (JUZNO-SAHALINSK , RU) observed 0800 UTC 17 November 2019
Temperature: -1.0°C (30°F)
Dewpoint: -6.0°C (21°F) [RH = 69%]
Pressure (altimeter): 29.94 inches Hg (1014.0 mb)
Winds: from the NNW (330 degrees) at 16 MPH (14 knots; 7.2 m/s)
gusting to 26 MPH (23 knots; 11.8 m/s)
Visibility: 6 or more miles (10+ km)
Ceiling: at least 12,000 feet AGL
Clouds: scattered clouds at 3400 feet AGL
Weather: no significant weather observed at this time

METAR text: UHSS 170730Z 33006G11MPS 9999 SCT032 M01/M06 Q1013 R01/420350 NOSIG RMK MT OBSC QFE758/1011
Conditions at: UHSS (JUZNO-SAHALINSK , RU) observed 0730 UTC 17 November 2019
Temperature: -1.0°C (30°F)
Dewpoint: -6.0°C (21°F) [RH = 69%]
Pressure (altimeter): 29.91 inches Hg (1013.0 mb)
Winds: from the NNW (330 degrees) at 14 MPH (12 knots; 6.2 m/s)
gusting to 24 MPH (21 knots; 10.8 m/s)
Visibility: 6 or more miles (10+ km)
Ceiling: at least 12,000 feet AGL
Clouds: scattered clouds at 3200 feet AGL
Weather: no significant weather observed at this time

METAR text: UHSS 170700Z 33008G13MPS 9999 DRSN SCT033 M01/M05 Q1012 R01/420360 NOSIG RMK MT OBSC QFE758/1010
Conditions at: UHSS (JUZNO-SAHALINSK , RU) observed 0700 UTC 17 November 2019
Temperature: -1.0°C (30°F)
Dewpoint: -5.0°C (23°F) [RH = 74%]
Pressure (altimeter): 29.88 inches Hg (1012.0 mb)
Winds: from the NNW (330 degrees) at 18 MPH (16 knots; 8.2 m/s)
gusting to 29 MPH (25 knots; 12.9 m/s)
Visibility: 6 or more miles (10+ km)
Ceiling: at least 12,000 feet AGL
Clouds: scattered clouds at 3300 feet AGL
Weather: DRSN  (low drifting snow)

METAR text: UHSS 170630Z 32009G14MPS 9999 DRSN SCT033CB M01/M05 Q1011 R01/420360 NOSIG RMK MT OBSC QFE757/1009
Conditions at: UHSS (JUZNO-SAHALINSK , RU) observed 0630 UTC 17 November 2019
Temperature: -1.0°C (30°F)
Dewpoint: -5.0°C (23°F) [RH = 74%]
Pressure (altimeter): 29.85 inches Hg (1011.0 mb)
Winds: from the NW (320 degrees) at 20 MPH (17 knots; 8.7 m/s)
gusting to 31 MPH (27 knots; 13.9 m/s)
Visibility: 6 or more miles (10+ km)
Ceiling: at least 12,000 feet AGL
Clouds: scattered clouds at 3300 feet AGL
Weather: DRSN  (low drifting snow)

METAR text: UHSS 170600Z 32012G18MPS 9999 DRSN SCT033CB M01/M06 Q1010 R01/420360 NOSIG RMK MT OBSC QFE756/1009
Conditions at: UHSS (JUZNO-SAHALINSK , RU) observed 0600 UTC 17 November 2019
Temperature: -1.0°C (30°F)
Dewpoint: -6.0°C (21°F) [RH = 69%]
Pressure (altimeter): 29.82 inches Hg (1010.0 mb)
Winds: from the NW (320 degrees) at 26 MPH (23 knots; 11.8 m/s)
gusting to 40 MPH (35 knots; 18.0 m/s)
Visibility: 6 or more miles (10+ km)
Ceiling: at least 12,000 feet AGL
Clouds: scattered clouds at 3300 feet AGL
Weather: DRSN  (low drifting snow)

METAR text: UHSS 170530Z 32009G14MPS 9999 DRSN SCT033CB M00/M06 Q1009 R01/420360 NOSIG RMK MT OBSC QFE756/1008
Conditions at: UHSS (JUZNO-SAHALINSK , RU) observed 0530 UTC 17 November 2019
Temperature: 0.0°C (32°F)
Dewpoint: -6.0°C (21°F) [RH = 64%]
Pressure (altimeter): 29.79 inches Hg (1009.0 mb)
Winds: from the NW (320 degrees) at 20 MPH (17 knots; 8.7 m/s)
gusting to 31 MPH (27 knots; 13.9 m/s)
Visibility: 6 or more miles (10+ km)
Ceiling: at least 12,000 feet AGL
Clouds: scattered clouds at 3300 feet AGL
Weather: DRSN  (low drifting snow)

METAR text: UHSS 170500Z 32009G14MPS 9999 DRSN SCT033CB M00/M06 Q1009 R01/420360 NOSIG RMK MT OBSC QFE755/1007
Conditions at: UHSS (JUZNO-SAHALINSK , RU) observed 0500 UTC 17 November 2019
Temperature: 0.0°C (32°F)
Dewpoint: -6.0°C (21°F) [RH = 64%]
Pressure (altimeter): 29.79 inches Hg (1009.0 mb)
Winds: from the NW (320 degrees) at 20 MPH (17 knots; 8.7 m/s)
gusting to 31 MPH (27 knots; 13.9 m/s)
Visibility: 6 or more miles (10+ km)
Ceiling: at least 12,000 feet AGL
Clouds: scattered clouds at 3300 feet AGL
Weather: DRSN  (low drifting snow)

METAR text: UHSS 170430Z 32009G14MPS 9999 DRSN SCT033CB M00/M06 Q1008 R01/420360 NOSIG RMK MT OBSC QFE755/1006
Conditions at: UHSS (JUZNO-SAHALINSK , RU) observed 0430 UTC 17 November 2019
Temperature: 0.0°C (32°F)
Dewpoint: -6.0°C (21°F) [RH = 64%]
Pressure (altimeter): 29.76 inches Hg (1008.0 mb)
Winds: from the NW (320 degrees) at 20 MPH (17 knots; 8.7 m/s)
gusting to 31 MPH (27 knots; 13.9 m/s)
Visibility: 6 or more miles (10+ km)
Ceiling: at least 12,000 feet AGL
Clouds: scattered clouds at 3300 feet AGL
Weather: DRSN  (low drifting snow)

METAR text: UHSS 170400Z 32007G12MPS 9999 SCT033CB M00/M06 Q1007 R01/420360 NOSIG RMK MT OBSC QFE754/1006
Conditions at: UHSS (JUZNO-SAHALINSK , RU) observed 0400 UTC 17 November 2019
Temperature: 0.0°C (32°F)
Dewpoint: -6.0°C (21°F) [RH = 64%]
Pressure (altimeter): 29.73 inches Hg (1007.0 mb)
Winds: from the NW (320 degrees) at 16 MPH (14 knots; 7.2 m/s)
gusting to 26 MPH (23 knots; 11.8 m/s)
Visibility: 6 or more miles (10+ km)
Ceiling: at least 12,000 feet AGL
Clouds: scattered clouds at 3300 feet AGL
Weather: no significant weather observed at this time

METAR text: UHSS 170330Z 33005G10MPS 9999 SCT032CB M01/M06 Q1007 R01/420360 NOSIG RMK MT OBSC QFE754/1006
Conditions at: UHSS (JUZNO-SAHALINSK , RU) observed 0330 UTC 17 November 2019
Temperature: -1.0°C (30°F)
Dewpoint: -6.0°C (21°F) [RH = 69%]
Pressure (altimeter): 29.73 inches Hg (1007.0 mb)
Winds: from the NNW (330 degrees) at 12 MPH (10 knots; 5.1 m/s)
gusting to 22 MPH (19 knots; 9.8 m/s)
Visibility: 6 or more miles (10+ km)
Ceiling: at least 12,000 feet AGL
Clouds: scattered clouds at 3200 feet AGL
Weather: no significant weather observed at this time

METAR text: UHSS 170300Z 31005G10MPS 9999 SCT033CB M01/M06 Q1007 R01/420360 NOSIG RMK MT OBSC QFE754/1005
Conditions at: UHSS (JUZNO-SAHALINSK , RU) observed 0300 UTC 17 November 2019
Temperature: -1.0°C (30°F)
Dewpoint: -6.0°C (21°F) [RH = 69%]
Pressure (altimeter): 29.73 inches Hg (1007.0 mb)
Winds: from the NW (310 degrees) at 12 MPH (10 knots; 5.1 m/s)
gusting to 22 MPH (19 knots; 9.8 m/s)
Visibility: 6 or more miles (10+ km)
Ceiling: at least 12,000 feet AGL
Clouds: scattered clouds at 3300 feet AGL
Weather: no significant weather observed at this time

METAR text: UHSS 170230Z 31005G10MPS 9999 SCT031CB M02/M06 Q1006 R01/420360 NOSIG RMK MT OBSC QFE753/1004
Conditions at: UHSS (JUZNO-SAHALINSK , RU) observed 0230 UTC 17 November 2019
Temperature: -2.0°C (28°F)
Dewpoint: -6.0°C (21°F) [RH = 74%]
Pressure (altimeter): 29.70 inches Hg (1006.0 mb)
Winds: from the NW (310 degrees) at 12 MPH (10 knots; 5.1 m/s)
gusting to 22 MPH (19 knots; 9.8 m/s)
Visibility: 6 or more miles (10+ km)
Ceiling: at least 12,000 feet AGL
Clouds: scattered clouds at 3100 feet AGL
Weather: no significant weather observed at this time

METAR text: UHSS 170200Z 31006MPS 9999 SCT020 BKN036CB M02/M06 Q1005 R01/420360 NOSIG RMK MT OBSC QFE753/1004
Conditions at: UHSS (JUZNO-SAHALINSK , RU) observed 0200 UTC 17 November 2019
Temperature: -2.0°C (28°F)
Dewpoint: -6.0°C (21°F) [RH = 74%]
Pressure (altimeter): 29.68 inches Hg (1005.0 mb)
Winds: from the NW (310 degrees) at 14 MPH (12 knots; 6.2 m/s)
Visibility: 6 or more miles (10+ km)
Ceiling: 3600 feet AGL
Clouds: scattered clouds at 2000 feet AGL
broken clouds at 3600 feet AGL
Weather: no significant weather observed at this time

METAR text: UHSS 170130Z 31007MPS 9999 -SHSN BKN030CB M03/M07 Q1005 R01/420360 NOSIG RMK MT OBSC QFE753/1004
Conditions at: UHSS (JUZNO-SAHALINSK , RU) observed 0130 UTC 17 November 2019
Temperature: -3.0°C (27°F)
Dewpoint: -7.0°C (19°F) [RH = 74%]
Pressure (altimeter): 29.68 inches Hg (1005.0 mb)
Winds: from the NW (310 degrees) at 16 MPH (14 knots; 7.2 m/s)
Visibility: 6 or more miles (10+ km)
Ceiling: 3000 feet AGL
Clouds: broken clouds at 3000 feet AGL
Weather: -SHSN  (light snow showers)

METAR text: UHSS 170100Z 31005MPS 9999 -SHSN SCT036CB M03/M08 Q1005 R01/420360 NOSIG RMK QFE753/1004
Conditions at: UHSS (JUZNO-SAHALINSK , RU) observed 0100 UTC 17 November 2019
Temperature: -3.0°C (27°F)
Dewpoint: -8.0°C (18°F) [RH = 68%]
Pressure (altimeter): 29.68 inches Hg (1005.0 mb)
Winds: from the NW (310 degrees) at 12 MPH (10 knots; 5.1 m/s)
Visibility: 6 or more miles (10+ km)
Ceiling: at least 12,000 feet AGL
Clouds: scattered clouds at 3600 feet AGL
Weather: -SHSN  (light snow showers)

METAR text: UHSS 170030Z 32003MPS 8000 -SHSN SCT029 BKN033CB M05/M07 Q1005 R01/450355 NOSIG RMK MT OBSC QFE753/1004
Conditions at: UHSS (JUZNO-SAHALINSK , RU) observed 0030 UTC 17 November 2019
Temperature: -5.0°C (23°F)
Dewpoint: -7.0°C (19°F) [RH = 86%]
Pressure (altimeter): 29.68 inches Hg (1005.0 mb)
Winds: from the NW (320 degrees) at 7 MPH (6 knots; 3.1 m/s)
Visibility: 5 miles ( 8 km)
Ceiling: 3300 feet AGL
Clouds: scattered clouds at 2900 feet AGL
broken clouds at 3300 feet AGL
Weather: -SHSN  (light snow showers)

METAR text: UHSS 170000Z 00000MPS 9999 -SHSN BKN028CB M06/M07 Q1005 R01/450355 NOSIG RMK MT OBSC QFE753/1004
Conditions at: UHSS (JUZNO-SAHALINSK , RU) observed 0000 UTC 17 November 2019
Temperature: -6.0°C (21°F)
Dewpoint: -7.0°C (19°F) [RH = 93%]
Pressure (altimeter): 29.68 inches Hg (1005.0 mb)
Winds: calm
Visibility: 6 or more miles (10+ km)
Ceiling: 2800 feet AGL
Clouds: broken clouds at 2800 feet AGL
Weather: -SHSN  (light snow showers)

METAR text: UHSS 162330Z 00000MPS 8000 -SHSN BKN030CB M06/M07 Q1005 R01/450355 NOSIG RMK MT OBSC QFE753/1004
Conditions at: UHSS (JUZNO-SAHALINSK , RU) observed 2330 UTC 16 November 2019
Temperature: -6.0°C (21°F)
Dewpoint: -7.0°C (19°F) [RH = 93%]
Pressure (altimeter): 29.68 inches Hg (1005.0 mb)
Winds: calm
Visibility: 5 miles ( 8 km)
Ceiling: 3000 feet AGL
Clouds: broken clouds at 3000 feet AGL
Weather: -SHSN  (light snow showers)

METAR text: UHSS 162300Z 00000MPS 3600 -SHSN SCT026 BKN036CB M07/M07 Q1005 R01/450355 NOSIG RMK MT OBSC QFE753/1004
Conditions at: UHSS (JUZNO-SAHALINSK , RU) observed 2300 UTC 16 November 2019
Temperature: -7.0°C (19°F)
Dewpoint: -7.0°C (19°F) [RH = 100%]
Pressure (altimeter): 29.68 inches Hg (1005.0 mb)
Winds: calm
Visibility: 2.24 miles (3.60 km)
Ceiling: 3600 feet AGL
Clouds: scattered clouds at 2600 feet AGL
broken clouds at 3600 feet AGL
Weather: -SHSN  (light snow showers)

METAR text: UHSS 162230Z 14001MPS 3700 -SHSN SCT020 BKN028CB M08/M09 Q1005 R01/450355 NOSIG RMK MT OBSC QFE752/1003
Conditions at: UHSS (JUZNO-SAHALINSK , RU) observed 2230 UTC 16 November 2019
Temperature: -8.0°C (18°F)
Dewpoint: -9.0°C (16°F) [RH = 92%]
Pressure (altimeter): 29.68 inches Hg (1005.0 mb)
Winds: from the SE (140 degrees) at 2 MPH (2 knots; 1.0 m/s)
Visibility: 2.30 miles (3.70 km)
Ceiling: 2800 feet AGL
Clouds: scattered clouds at 2000 feet AGL
broken clouds at 2800 feet AGL
Weather: -SHSN  (light snow showers)

METAR text: UHSS 162200Z 13001MPS 5000 -SHSN SCT025 BKN037CB M10/M10 Q1005 R01/450355 NOSIG RMK MT OBSC QFE752/1003
Conditions at: UHSS (JUZNO-SAHALINSK , RU) observed 2200 UTC 16 November 2019
Temperature: -10.0°C (14°F)
Dewpoint: -10.0°C (14°F) [RH = 100%]
Pressure (altimeter): 29.68 inches Hg (1005.0 mb)
Winds: from the SE (130 degrees) at 2 MPH (2 knots; 1.0 m/s)
Visibility: 3 miles ( 5 km)
Ceiling: 3700 feet AGL
Clouds: scattered clouds at 2500 feet AGL
broken clouds at 3700 feet AGL
Weather: -SHSN  (light snow showers)

METAR text: UHSS 162130Z 14001MPS 5000 -SHSN BKN030CB M10/M10 Q1005 R01/450355 NOSIG RMK MT OBSC QFE752/1003
Conditions at: UHSS (JUZNO-SAHALINSK , RU) observed 2130 UTC 16 November 2019
Temperature: -10.0°C (14°F)
Dewpoint: -10.0°C (14°F) [RH = 100%]
Pressure (altimeter): 29.68 inches Hg (1005.0 mb)
Winds: from the SE (140 degrees) at 2 MPH (2 knots; 1.0 m/s)
Visibility: 3 miles ( 5 km)
Ceiling: 3000 feet AGL
Clouds: broken clouds at 3000 feet AGL
Weather: -SHSN  (light snow showers)

METAR text: UHSS 162100Z 11001MPS 5000 -SHSN BKN030CB M10/M11 Q1004 R01/450355 NOSIG RMK MT OBSC QFE752/1003
Conditions at: UHSS (JUZNO-SAHALINSK , RU) observed 2100 UTC 16 November 2019
Temperature: -10.0°C (14°F)
Dewpoint: -11.0°C (12°F) [RH = 92%]
Pressure (altimeter): 29.65 inches Hg (1004.0 mb)
Winds: from the ESE (110 degrees) at 2 MPH (2 knots; 1.0 m/s)
Visibility: 3 miles ( 5 km)
Ceiling: 3000 feet AGL
Clouds: broken clouds at 3000 feet AGL
Weather: -SHSN  (light snow showers)

METAR text: UHSS 162030Z 13001MPS 8000 BKN024CB M11/M12 Q1005 R01/450355 NOSIG RMK MT OBSC QFE752/1003
Conditions at: UHSS (JUZNO-SAHALINSK , RU) observed 2030 UTC 16 November 2019
Temperature: -11.0°C (12°F)
Dewpoint: -12.0°C (10°F) [RH = 92%]
Pressure (altimeter): 29.68 inches Hg (1005.0 mb)
Winds: from the SE (130 degrees) at 2 MPH (2 knots; 1.0 m/s)
Visibility: 5 miles ( 8 km)
Ceiling: 2400 feet AGL
Clouds: broken clouds at 2400 feet AGL
Weather: no significant weather observed at this time

METAR text: UHSS 162000Z 20001MPS 8000 -SHSN BKN025CB M11/M12 Q1005 R01/820260 NOSIG RMK MT OBSC QFE752/1003
Conditions at: UHSS (JUZNO-SAHALINSK , RU) observed 2000 UTC 16 November 2019
Temperature: -11.0°C (12°F)
Dewpoint: -12.0°C (10°F) [RH = 92%]
Pressure (altimeter): 29.68 inches Hg (1005.0 mb)
Winds: from the SSW (200 degrees) at 2 MPH (2 knots; 1.0 m/s)
Visibility: 5 miles ( 8 km)
Ceiling: 2500 feet AGL
Clouds: broken clouds at 2500 feet AGL
Weather: -SHSN  (light snow showers)

METAR text: UHSS 161930Z 26001MPS 6000 -SHSN BKN025CB M11/M12 Q1005 R01/820260 NOSIG RMK MT OBSC QFE752/1003
Conditions at: UHSS (JUZNO-SAHALINSK , RU) observed 1930 UTC 16 November 2019
Temperature: -11.0°C (12°F)
Dewpoint: -12.0°C (10°F) [RH = 92%]
Pressure (altimeter): 29.68 inches Hg (1005.0 mb)
Winds: from the W (260 degrees) at 2 MPH (2 knots; 1.0 m/s)
Visibility: 4 miles ( 6 km)
Ceiling: 2500 feet AGL
Clouds: broken clouds at 2500 feet AGL
Weather: -SHSN  (light snow showers)

METAR text: UHSS 161900Z 29001MPS 8000 -SHSN BKN025CB M11/M12 Q1005 R01/820260 NOSIG RMK MT OBSC QFE752/1003
Conditions at: UHSS (JUZNO-SAHALINSK , RU) observed 1900 UTC 16 November 2019
Temperature: -11.0°C (12°F)
Dewpoint: -12.0°C (10°F) [RH = 92%]
Pressure (altimeter): 29.68 inches Hg (1005.0 mb)
Winds: from the WNW (290 degrees) at 2 MPH (2 knots; 1.0 m/s)
Visibility: 5 miles ( 8 km)
Ceiling: 2500 feet AGL
Clouds: broken clouds at 2500 feet AGL
Weather: -SHSN  (light snow showers)

METAR text: UHSS 161800Z 26001MPS 5000 -SHSN BKN022CB 10/09 Q1005 R01/820260 NOSIG RMK MT OBSC QFE752/1003
Conditions at: UHSS (JUZNO-SAHALINSK , RU) observed 1800 UTC 16 November 2019
Temperature: 10.0°C (50°F)
Dewpoint: 9.0°C (48°F) [RH = 93%]
Pressure (altimeter): 29.68 inches Hg (1005.0 mb)
Winds: from the W (260 degrees) at 2 MPH (2 knots; 1.0 m/s)
Visibility: 3 miles ( 5 km)
Ceiling: 2200 feet AGL
Clouds: broken clouds at 2200 feet AGL
Weather: -SHSN  (light snow showers)

METAR text: UHSS 161700Z 24002MPS 6000 -SHSN BKN022CB 10/09 Q1005 R01/820260 NOSIG RMK MT OBSC QFE752/1003
Conditions at: UHSS (JUZNO-SAHALINSK , RU) observed 1700 UTC 16 November 2019
Temperature: 10.0°C (50°F)
Dewpoint: 9.0°C (48°F) [RH = 93%]
Pressure (altimeter): 29.68 inches Hg (1005.0 mb)
Winds: from the WSW (240 degrees) at 5 MPH (4 knots; 2.1 m/s)
Visibility: 4 miles ( 6 km)
Ceiling: 2200 feet AGL
Clouds: broken clouds at 2200 feet AGL
Weather: -SHSN  (light snow showers)

METAR text: UHSS 161600Z 15001MPS 5000 -SHSN BKN019CB 12/11 Q1005 R01/820260 NOSIG RMK MT OBSC QFE753/1004
Conditions at: UHSS (JUZNO-SAHALINSK , RU) observed 1600 UTC 16 November 2019
Temperature: 12.0°C (54°F)
Dewpoint: 11.0°C (52°F) [RH = 94%]
Pressure (altimeter): 29.68 inches Hg (1005.0 mb)
Winds: from the SSE (150 degrees) at 2 MPH (2 knots; 1.0 m/s)
Visibility: 3 miles ( 5 km)
Ceiling: 1900 feet AGL
Clouds: broken clouds at 1900 feet AGL
Weather: -SHSN  (light snow showers)

METAR text: UHSS 161500Z 00000MPS 7000 -SHSN BKN020CB 12/11 Q1005 R01/820260 NOSIG RMK MT OBSC QFE752/1003
Conditions at: UHSS (JUZNO-SAHALINSK , RU) observed 1500 UTC 16 November 2019
Temperature: 12.0°C (54°F)
Dewpoint: 11.0°C (52°F) [RH = 94%]
Pressure (altimeter): 29.68 inches Hg (1005.0 mb)
Winds: calm
Visibility: 4 miles ( 7 km)
Ceiling: 2000 feet AGL
Clouds: broken clouds at 2000 feet AGL
Weather: -SHSN  (light snow showers)

METAR text: UHSS 161400Z 09001MPS 1500 1300E R01/P2000N SHSN BKN016CB 11/10 Q1005 R01/820260 NOSIG RMK MT OBSC QFE752/1003
Conditions at: UHSS (JUZNO-SAHALINSK , RU) observed 1400 UTC 16 November 2019
Temperature: 11.0°C (52°F)
Dewpoint: 10.0°C (50°F) [RH = 94%]
Pressure (altimeter): 29.68 inches Hg (1005.0 mb)
Winds: from the E (90 degrees) at 2 MPH (2 knots; 1.0 m/s)
Visibility: 0.93 miles (1.50 km)
Ceiling: 1600 feet AGL
Clouds: broken clouds at 1600 feet AGL
Weather: SHSN  (snow showers)

METAR text: UHSS 161300Z 11001MPS 4900 -SHSN BKN017CB M12/M13 Q1005 R01/820260 NOSIG RMK MT OBSC QFE753/1004
Conditions at: UHSS (JUZNO-SAHALINSK , RU) observed 1300 UTC 16 November 2019
Temperature: -12.0°C (10°F)
Dewpoint: -13.0°C ( 9°F) [RH = 92%]
Pressure (altimeter): 29.68 inches Hg (1005.0 mb)
Winds: from the ESE (110 degrees) at 2 MPH (2 knots; 1.0 m/s)
Visibility: 3 miles ( 5 km)
Ceiling: 1700 feet AGL
Clouds: broken clouds at 1700 feet AGL
Weather: -SHSN  (light snow showers)

METAR text: UHSS 161200Z 20002MPS 6000 -SHSN BKN017CB M12/M13 Q1005 R01/820260 NOSIG RMK MT OBSC QFE753/1004
Conditions at: UHSS (JUZNO-SAHALINSK , RU) observed 1200 UTC 16 November 2019
Temperature: -12.0°C (10°F)
Dewpoint: -13.0°C ( 9°F) [RH = 92%]
Pressure (altimeter): 29.68 inches Hg (1005.0 mb)
Winds: from the SSW (200 degrees) at 5 MPH (4 knots; 2.1 m/s)
Visibility: 4 miles ( 6 km)
Ceiling: 1700 feet AGL
Clouds: broken clouds at 1700 feet AGL
Weather: -SHSN  (light snow showers)

METAR text: UHSS 161100Z 00000MPS 9000 -SHSN BKN030CB M12/M13 Q1005 R01/820260 NOSIG RMK MT OBSC QFE753/1004
Conditions at: UHSS (JUZNO-SAHALINSK , RU) observed 1100 UTC 16 November 2019
Temperature: -12.0°C (10°F)
Dewpoint: -13.0°C ( 9°F) [RH = 92%]
Pressure (altimeter): 29.68 inches Hg (1005.0 mb)
Winds: calm
Visibility: 6 miles ( 9 km)
Ceiling: 3000 feet AGL
Clouds: broken clouds at 3000 feet AGL
Weather: -SHSN  (light snow showers)

METAR text: UHSS 161000Z 00000MPS 5000 -SHSN BKN023CB M11/M12 Q1005 R01/820260 NOSIG RMK MT OBSC QFE752/1003
Conditions at: UHSS (JUZNO-SAHALINSK , RU) observed 1000 UTC 16 November 2019
Temperature: -11.0°C (12°F)
Dewpoint: -12.0°C (10°F) [RH = 92%]
Pressure (altimeter): 29.68 inches Hg (1005.0 mb)
Winds: calm
Visibility: 3 miles ( 5 km)
Ceiling: 2300 feet AGL
Clouds: broken clouds at 2300 feet AGL
Weather: -SHSN  (light snow showers)

METAR text: UHSS 160930Z 28001MPS 4600 BKN026CB M12/M13 Q1005 R01/820260 NOSIG RMK MT OBSC QFE752/1003
Conditions at: UHSS (JUZNO-SAHALINSK , RU) observed 0930 UTC 16 November 2019
Temperature: -12.0°C (10°F)
Dewpoint: -13.0°C ( 9°F) [RH = 92%]
Pressure (altimeter): 29.68 inches Hg (1005.0 mb)
Winds: from the W (280 degrees) at 2 MPH (2 knots; 1.0 m/s)
Visibility: 2.86 miles (4.60 km)
Ceiling: 2600 feet AGL
Clouds: broken clouds at 2600 feet AGL
Weather: no significant weather observed at this time

METAR text: UHSS 160900Z 32001MPS 9999 BKN034CB BKN037 M12/M13 Q1004 R01/820260 NOSIG RMK QFE752/1003
Conditions at: UHSS (JUZNO-SAHALINSK , RU) observed 0900 UTC 16 November 2019
Temperature: -12.0°C (10°F)
Dewpoint: -13.0°C ( 9°F) [RH = 92%]
Pressure (altimeter): 29.65 inches Hg (1004.0 mb)
Winds: from the NW (320 degrees) at 2 MPH (2 knots; 1.0 m/s)
Visibility: 6 or more miles (10+ km)
Ceiling: 3400 feet AGL
Clouds: broken clouds at 3400 feet AGL
broken clouds at 3700 feet AGL
Weather: no significant weather observed at this time

METAR text: UHSS 160830Z 27001MPS 9999 SCT035CB M10/M13 Q1004 R01/820260 NOSIG RMK QFE752/1003
Conditions at: UHSS (JUZNO-SAHALINSK , RU) observed 0830 UTC 16 November 2019
Temperature: -10.0°C (14°F)
Dewpoint: -13.0°C ( 9°F) [RH = 79%]
Pressure (altimeter): 29.65 inches Hg (1004.0 mb)
Winds: from the W (270 degrees) at 2 MPH (2 knots; 1.0 m/s)
Visibility: 6 or more miles (10+ km)
Ceiling: at least 12,000 feet AGL
Clouds: scattered clouds at 3500 feet AGL
Weather: no significant weather observed at this time

METAR text: UHSS 160800Z 32002MPS 9999 SCT035CB M09/M13 Q1004 R01/820260 NOSIG RMK QFE752/1002
Conditions at: UHSS (JUZNO-SAHALINSK , RU) observed 0800 UTC 16 November 2019
Temperature: -9.0°C (16°F)
Dewpoint: -13.0°C ( 9°F) [RH = 73%]
Pressure (altimeter): 29.65 inches Hg (1004.0 mb)
Winds: from the NW (320 degrees) at 5 MPH (4 knots; 2.1 m/s)
Visibility: 6 or more miles (10+ km)
Ceiling: at least 12,000 feet AGL
Clouds: scattered clouds at 3500 feet AGL
Weather: no significant weather observed at this time

Forecast for: UHSS (JUZNO-SAHALINSK , RU)
Text: TAF UHSS 171655Z 1718/1824 35006MPS 9999 BKN030CB
Forecast period: 1800 to 2100 UTC 17 November 2019
Forecast type: FROM: standard forecast or significant change
Winds: from the N (350 degrees) at 14 MPH (12 knots; 6.2 m/s)
Visibility: 6 or more miles 10+ km)
Ceiling: 3000 feet AGL
Clouds: broken clouds at 3000 feet AGL
Weather: no significant weather forecast for this period
Text: BECMG 1721/1724 12003MPS
Forecast period: 2100 UTC 17 November 2019 to 0400 UTC 18 November 2019
Forecast type: BECOMING: Conditions expected to become as follows by 0000 UTC 18 November 2019
Winds: from the ESE (120 degrees) at 7 MPH (6 knots; 3.1 m/s)
Visibility: 6 or more miles 10+ km)
Ceiling: 3000 feet AGL
Clouds: broken clouds at 3000 feet AGL
Weather: no significant weather forecast for this period
Text: BECMG 1804/1806 12007G12MPS
Forecast period: 0400 UTC 18 November 2019 to 0000 UTC 19 November 2019
Forecast type: BECOMING: Conditions expected to become as follows by 0600 UTC 18 November 2019
Winds: from the ESE (120 degrees) at 16 MPH (14 knots; 7.2 m/s)
gusting to 26 MPH (23 knots; 11.8 m/s)
Visibility: 6 or more miles 10+ km)
Ceiling: 3000 feet AGL
Clouds: broken clouds at 3000 feet AGL
Weather: no significant weather forecast for this period
Text: TEMPO 1806/1824 0700 +SHSNRA BLSN BKN004 BKN015CB
Forecast period: 0600 UTC 18 November 2019 to 0000 UTC 19 November 2019
Forecast type: TEMPORARY: The following changes expected for less than half the time period
Visibility: 0.43 miles (0.69 km)
Ceiling: 400 feet AGL
Clouds: broken clouds at 400 feet AGL
broken clouds at 1500 feet AGL
Weather: +SHSN +SHRA BLSN  (heavy snow showers, heavy rain showers, blowing snow)